Flight Track Log - Related Links

Times and Time Zones

All times are in EDT time to prevent confusion due to time zone crossing. See the ASQ4283 flight status page for this flight to view local times or setup timezone preferences in your user account.

Time Position Orientation Groundspeed Altitude Reporting Facility
EDT Latitude Longitude Course Direction KTS MPH feet Rate Location/Type
Wed 08:48:51 PM 41.3931 -90.4744 93° East 268 308 5,600  Level Chicago Center
Wed 08:49:53 PM 41.3967 -90.3475 88° East 288 331 8,100 2,016 Climbing Chicago Center
Wed 08:50:56 PM 41.4019 -90.2369 86° East 296 341 9,800 1,152 Climbing Chicago Center
Wed 08:51:00 PM 41.4333 -90.0372 90° East  Level FlightAware Approximate
Wed 08:51:58 PM 41.4078 -90.1136 86° East 326 375 10,500  Level Chicago Center
Wed 08:52:00 PM 41.4334 -89.9283 90° East  Level FlightAware Approximate
Wed 08:53:00 PM 41.4147 -89.9756 86° East 364 419 11,400  Level Chicago Center
Wed 08:54:02 PM 41.4211 -89.8333 87° East 380 437 12,300 774 Climbing Chicago Center
Wed 08:55:04 PM 41.4264 -89.6861 87° East 392 451 13,000 339 Climbing Chicago Center
Wed 08:56:06 PM 41.4378 -89.5036 85° East 410 472 13,000  Level Chicago Center
Wed 08:57:08 PM 41.4528 -89.3508 82° East 413 475 13,000  Level Chicago Center
Wed 08:58:10 PM 41.4672 -89.1994 83° East 412 474 13,000 -242 Level Chicago Center
Wed 08:59:12 PM 41.4794 -89.0519 84° East 404 465 12,500 -581 Descending Chicago Center
Wed 09:00:14 PM 41.4936 -88.9056 83° East 401 461 11,800 -672 Descending Chicago Center
Wed 09:01:17 PM 41.5067 -88.7625 83° East 394 453 11,100 -384 Descending Chicago Center
Wed 09:02:19 PM 41.5500 -88.6106 69° East 371 427 11,000 -48 Descending Chicago Center
Wed 09:03:21 PM 41.5992 -88.4886 62° Northeast 372 428 11,000 -145 Level Chicago Center
Wed 09:04:23 PM 41.6589 -88.3806 53° Northeast 359 413 10,700 -484 Descending Chicago Center
Wed 09:05:25 PM 41.7219 -88.2728 52° Northeast 365 420 10,000 -339 Descending Chicago Center
Wed 09:06:27 PM 41.7844 -88.1656 52° Northeast 363 418 10,000  Level Chicago Center
Wed 09:07:29 PM 41.8436 -88.0614 53° Northeast 353 406 10,000 -48 Level Chicago Center
Wed 09:08:31 PM 41.8719 -87.9131 76° East 343 395 9,900 -677 Descending Chicago Center
Wed 09:09:33 PM 41.8825 -87.8111 82° East 287 330 8,600 -1,452 Descending Chicago Center
Wed 09:10:35 PM 41.8836 -87.7081 89° East 279 321 6,900 -1,597 Descending Chicago Center
Wed 09:11:37 PM 41.8836 -87.6064 90° East 275 316 5,300 -912 Descending Chicago Center
Wed 09:12:40 PM 41.8839 -87.5083 90° East 269 310 5,000 -144 Descending Chicago Center
Wed 09:13:42 PM 41.8856 -87.4053 89° East 272 313 5,000  Level Chicago Center
Wed 09:14:44 PM 41.9558 -87.3975 North 243 280 5,000  Level Chicago Center
Wed 09:15:46 PM 41.9683 -87.4736 282° West 220 253 5,000  Level Chicago Center
Wed 09:16:48 PM 41.9689 -87.5494 271° West 210 242 5,000 -242 Level Chicago Center
Wed 09:17:50 PM 41.9686 -87.6192 270° West 195 224 4,500 -484 Descending Chicago Center

Login

Don't have an account? Register now (free) for customized features, flight alerts, and more!